createdAt,value
2019-05-03T00:02:23.941Z,9.33
2019-05-03T00:04:54.869Z,9.10
2019-05-03T00:07:22.445Z,9.23
2019-05-03T00:09:49.802Z,8.65
2019-05-03T00:12:17.206Z,8.98
2019-05-03T00:14:46.530Z,8.60
2019-05-03T00:17:13.842Z,8.49
2019-05-03T00:19:42.239Z,8.73
2019-05-03T00:22:09.931Z,8.89
2019-05-03T00:24:37.267Z,8.74
2019-05-03T00:27:04.542Z,8.46
2019-05-03T00:29:32.506Z,8.94
2019-05-03T00:32:01.774Z,8.55
2019-05-03T00:34:34.705Z,8.55
2019-05-03T00:37:04.249Z,8.50
2019-05-03T00:39:36.623Z,8.39
2019-05-03T00:42:04.010Z,8.28
2019-05-03T00:44:31.753Z,8.73
2019-05-03T00:46:59.443Z,8.49
2019-05-03T00:49:26.799Z,8.51
2019-05-03T00:51:54.144Z,8.33
2019-05-03T00:54:22.302Z,8.54
2019-05-03T00:56:49.861Z,8.25
2019-05-03T00:59:17.202Z,8.25
2019-05-03T01:01:44.504Z,8.46
2019-05-03T01:04:11.966Z,8.44
2019-05-03T01:06:39.322Z,8.59
2019-05-03T01:09:13.008Z,8.23
2019-05-03T01:11:41.834Z,8.46
2019-05-03T01:14:11.908Z,8.24
2019-05-03T01:16:39.317Z,7.89
2019-05-03T01:19:06.617Z,8.27
2019-05-03T01:21:33.978Z,8.49
2019-05-03T01:24:01.695Z,8.96
2019-05-03T01:26:29.176Z,8.38
2019-05-03T01:28:56.503Z,8.03
2019-05-03T01:31:23.862Z,8.01
2019-05-03T01:33:51.763Z,8.29
2019-05-03T01:36:19.503Z,8.28
2019-05-03T01:38:46.863Z,8.09
2019-05-03T01:41:14.165Z,8.25
2019-05-03T01:43:41.902Z,8.43
2019-05-03T01:46:09.523Z,8.16
2019-05-03T01:49:12.290Z,8.07
2019-05-03T01:52:05.363Z,8.29
2019-05-03T01:54:32.722Z,8.16
2019-05-03T01:57:02.250Z,8.82
2019-05-03T01:59:29.242Z,8.90
2019-05-03T02:02:14.604Z,8.64
2019-05-03T02:04:46.078Z,8.75
2019-05-03T02:07:13.446Z,8.72
2019-05-03T02:09:41.685Z,8.54
2019-05-03T02:12:09.138Z,8.26
2019-05-03T02:14:36.456Z,8.41
2019-05-03T02:17:03.737Z,8.24
2019-05-03T02:19:32.688Z,8.35
2019-05-03T02:22:00.247Z,8.56
2019-05-03T02:24:27.527Z,8.39
2019-05-03T02:26:54.878Z,8.63
2019-05-03T02:29:22.183Z,8.46
2019-05-03T02:31:49.465Z,8.78
2019-05-03T02:34:16.796Z,8.64
2019-05-03T02:36:44.144Z,8.79
2019-05-03T02:39:14.231Z,8.82
2019-05-03T02:41:41.525Z,8.81
2019-05-03T02:44:09.046Z,8.87
2019-05-03T02:46:48.396Z,8.47
2019-05-03T02:49:26.052Z,8.07
2019-05-03T02:51:55.499Z,7.76
2019-05-03T02:54:22.730Z,8.41
2019-05-03T02:56:50.050Z,8.62
2019-05-03T02:59:17.307Z,8.44
2019-05-03T03:01:46.488Z,8.38
2019-05-03T03:04:15.832Z,8.28
2019-05-03T03:06:45.482Z,7.97
2019-05-03T03:09:16.477Z,7.56
2019-05-03T03:11:45.753Z,8.10
2019-05-03T03:14:16.741Z,8.12
2019-05-03T03:16:47.551Z,8.10
2019-05-03T03:19:16.104Z,7.92
2019-05-03T03:21:46.614Z,8.02
2019-05-03T03:24:17.924Z,8.30
2019-05-03T03:26:47.524Z,8.38
2019-05-03T03:29:16.854Z,7.98
2019-05-03T03:32:21.685Z,8.24
2019-05-03T03:35:02.944Z,7.95
2019-05-03T03:37:28.529Z,8.03
2019-05-03T03:39:58.693Z,8.09
2019-05-03T03:42:27.804Z,7.95
2019-05-03T03:44:56.585Z,8.08
2019-05-03T03:47:27.340Z,8.01
2019-05-03T03:49:55.305Z,7.82
2019-05-03T03:52:25.309Z,7.91
2019-05-03T03:54:55.414Z,7.92
2019-05-03T03:57:25.285Z,7.93
2019-05-03T03:59:52.785Z,7.91
2019-05-03T04:02:20.209Z,7.73
2019-05-03T04:04:47.589Z,7.65
2019-05-03T04:07:16.003Z,7.71
2019-05-03T04:09:45.734Z,7.71
2019-05-03T04:12:13.121Z,7.74
2019-05-03T04:14:47.676Z,8.04
2019-05-03T04:17:26.640Z,8.34
2019-05-03T04:19:55.922Z,8.28
2019-05-03T04:22:25.745Z,7.99
2019-05-03T04:24:55.299Z,8.04
2019-05-03T04:27:26.438Z,8.26
2019-05-03T04:29:51.802Z,7.98
2019-05-03T04:32:19.083Z,8.14
2019-05-03T04:34:46.443Z,7.95
2019-05-03T04:37:16.151Z,8.30
2019-05-03T04:39:45.349Z,8.21
2019-05-03T04:42:12.245Z,7.89
2019-05-03T04:44:39.552Z,8.27
2019-05-03T04:47:07.312Z,8.49
2019-05-03T04:49:36.245Z,8.48
2019-05-03T04:52:05.814Z,8.41
2019-05-03T04:54:51.967Z,8.36
2019-05-03T04:57:34.901Z,8.63
2019-05-03T04:59:48.811Z,8.80
2019-05-03T05:02:16.191Z,8.40
2019-05-03T05:04:46.062Z,8.15
2019-05-03T05:07:15.257Z,8.21
2019-05-03T05:09:41.894Z,8.38
2019-05-03T05:12:09.219Z,8.28
2019-05-03T05:14:36.586Z,8.46
2019-05-03T05:17:06.128Z,8.94
2019-05-03T05:19:51.582Z,8.84
2019-05-03T05:22:24.311Z,8.85
2019-05-03T05:24:51.908Z,8.48
2019-05-03T05:27:25.736Z,8.88
2019-05-03T05:29:55.285Z,8.98
2019-05-03T05:32:22.456Z,9.05
2019-05-03T05:34:49.863Z,8.78
2019-05-03T05:37:17.166Z,8.54
2019-05-03T05:39:44.797Z,8.88
2019-05-03T05:42:12.404Z,8.93
2019-05-03T05:44:39.753Z,8.35
2019-05-03T05:47:15.008Z,8.31
2019-05-03T05:49:54.895Z,9.03
2019-05-03T05:52:24.405Z,8.62
2019-05-03T05:55:00.801Z,8.95
2019-05-03T05:58:08.136Z,8.94
2019-05-03T06:00:44.794Z,8.73
2019-05-03T06:03:12.170Z,8.94
2019-05-03T06:05:39.705Z,8.99
2019-05-03T06:08:26.575Z,9.14
2019-05-03T06:11:16.332Z,9.26
2019-05-03T06:13:56.800Z,9.00
2019-05-03T06:16:34.895Z,9.05
2019-05-03T06:19:30.718Z,9.35
2019-05-03T06:22:08.072Z,9.58
2019-05-03T06:24:40.382Z,9.13
2019-05-03T06:27:16.612Z,9.45
2019-05-03T06:29:45.483Z,9.02
2019-05-03T06:32:22.990Z,9.11
2019-05-03T06:34:50.307Z,9.26
2019-05-03T06:37:19.562Z,9.68
2019-05-03T06:39:46.908Z,9.29
2019-05-03T06:42:17.412Z,9.56
2019-05-03T06:44:46.015Z,9.43
2019-05-03T06:47:14.827Z,9.59
2019-05-03T06:49:44.901Z,9.49
2019-05-03T06:52:11.587Z,9.57
2019-05-03T06:54:41.754Z,9.56
2019-05-03T06:57:10.993Z,9.66
2019-05-03T06:59:57.853Z,9.89
2019-05-03T07:02:46.533Z,9.88
2019-05-03T07:05:40.367Z,10.21
2019-05-03T07:08:28.102Z,10.56
2019-05-03T07:10:57.767Z,10.10
2019-05-03T07:13:25.519Z,10.20
2019-05-03T07:15:52.906Z,10.38
2019-05-03T07:18:20.257Z,9.91
2019-05-03T07:20:56.518Z,10.15
2019-05-03T07:23:24.112Z,10.05
2019-05-03T07:25:51.436Z,10.03
2019-05-03T07:28:18.773Z,9.93
2019-05-03T07:30:46.089Z,10.35
2019-05-03T07:33:20.536Z,9.88
2019-05-03T07:35:47.826Z,9.96
2019-05-03T07:38:15.575Z,10.03
2019-05-03T07:40:44.586Z,10.11
2019-05-03T07:43:12.211Z,10.54
2019-05-03T07:45:39.509Z,10.72
2019-05-03T07:48:08.650Z,10.20
2019-05-03T07:50:36.023Z,10.56
2019-05-03T07:53:04.638Z,10.49
2019-05-03T07:55:51.897Z,10.93
2019-05-03T07:58:21.121Z,11.15
2019-05-03T08:01:02.550Z,11.36
2019-05-03T08:03:18.650Z,10.83
2019-05-03T08:05:45.949Z,10.98
2019-05-03T08:08:14.944Z,10.92
2019-05-03T08:10:44.864Z,10.72
2019-05-03T08:13:11.763Z,11.48
2019-05-03T08:15:39.161Z,11.75
2019-05-03T08:18:09.121Z,11.17
2019-05-03T08:20:36.628Z,11.20
2019-05-03T08:23:05.312Z,11.70
2019-05-03T08:25:33.004Z,11.73
2019-05-03T08:28:00.350Z,11.49
2019-05-03T08:30:36.590Z,11.85
2019-05-03T08:33:11.269Z,11.44
2019-05-03T08:35:41.034Z,11.68
2019-05-03T08:38:08.347Z,11.47
2019-05-03T08:40:41.682Z,11.67
2019-05-03T08:43:09.007Z,11.55
2019-05-03T08:45:36.404Z,11.14
2019-05-03T08:48:05.550Z,11.74
2019-05-03T08:50:34.742Z,11.54
2019-05-03T08:53:04.891Z,11.29
2019-05-03T08:55:31.552Z,11.35
2019-05-03T08:57:58.887Z,11.44
2019-05-03T09:00:28.176Z,11.46
2019-05-03T09:02:55.552Z,11.56
2019-05-03T09:05:25.070Z,11.22
2019-05-03T09:07:52.363Z,11.07
2019-05-03T09:10:27.926Z,11.21
2019-05-03T09:13:06.562Z,11.67
2019-05-03T09:15:35.106Z,11.38
2019-05-03T09:18:04.625Z,10.92
2019-05-03T09:20:32.405Z,11.15
2019-05-03T09:23:00.068Z,11.07
2019-05-03T09:25:27.422Z,11.23
2019-05-03T09:27:55.225Z,11.84
2019-05-03T09:30:24.985Z,11.61
2019-05-03T09:32:52.067Z,12.00
2019-05-03T09:35:29.628Z,12.20
2019-05-03T09:37:48.543Z,12.40
2019-05-03T09:40:15.957Z,12.48
2019-05-03T09:42:44.520Z,12.18
2019-05-03T09:45:12.429Z,12.24
2019-05-03T09:47:39.725Z,12.49
2019-05-03T09:50:07.528Z,12.54
2019-05-03T09:52:35.593Z,12.22
2019-05-03T09:55:05.674Z,11.99
2019-05-03T09:57:34.717Z,11.88
2019-05-03T10:00:04.755Z,11.93
2019-05-03T10:02:31.752Z,11.72
2019-05-03T10:04:59.156Z,11.58
2019-05-03T10:07:27.512Z,11.47
2019-05-03T10:09:55.376Z,11.18
2019-05-03T10:12:25.473Z,11.50
2019-05-03T10:14:54.840Z,11.30
2019-05-03T10:17:51.014Z,11.14
2019-05-03T10:20:19.857Z,11.31
2019-05-03T10:22:47.151Z,11.02
2019-05-03T10:25:14.464Z,11.22
2019-05-03T10:27:47.306Z,11.41
2019-05-03T10:30:19.578Z,11.26
2019-05-03T10:32:51.184Z,12.50
2019-05-03T10:35:19.172Z,12.41
2019-05-03T10:37:46.604Z,13.00
2019-05-03T10:40:18.529Z,13.47
2019-05-03T10:42:45.947Z,13.95
2019-05-03T10:45:15.249Z,14.02
2019-05-03T10:47:42.687Z,14.08
2019-05-03T10:50:10.284Z,13.74
2019-05-03T10:52:44.670Z,13.31
2019-05-03T10:55:12.273Z,13.72
2019-05-03T10:57:44.963Z,13.49
2019-05-03T11:00:41.739Z,13.37
2019-05-03T11:02:54.985Z,13.11
2019-05-03T11:05:22.428Z,13.77
2019-05-03T11:07:49.781Z,13.69
2019-05-03T11:10:17.278Z,13.12
2019-05-03T11:12:44.635Z,13.62
2019-05-03T11:15:12.138Z,13.24
2019-05-03T11:17:39.516Z,13.48
2019-05-03T11:20:06.949Z,13.13
2019-05-03T11:22:34.951Z,13.04
2019-05-03T11:25:02.540Z,13.05
2019-05-03T11:27:49.434Z,12.86
2019-05-03T11:30:17.611Z,13.10
2019-05-03T11:33:15.155Z,12.91
2019-05-03T11:35:50.262Z,12.80
2019-05-03T11:38:20.419Z,13.33
2019-05-03T11:40:47.828Z,13.25
2019-05-03T11:43:16.862Z,13.60
2019-05-03T11:45:44.876Z,13.40
2019-05-03T11:48:14.666Z,13.19
2019-05-03T11:50:42.494Z,13.02
2019-05-03T11:53:09.911Z,12.88
2019-05-03T11:55:37.276Z,12.76
2019-05-03T11:58:17.724Z,12.61
2019-05-03T12:00:45.289Z,13.25
2019-05-03T12:03:18.137Z,12.86
2019-05-03T12:05:48.603Z,13.08
2019-05-03T12:08:16.069Z,12.76
2019-05-03T12:10:55.162Z,12.89
2019-05-03T12:13:19.197Z,13.14
2019-05-03T12:15:46.633Z,12.86
2019-05-03T12:18:16.335Z,12.69
2019-05-03T12:20:46.532Z,12.96
2019-05-03T12:23:15.643Z,12.54
2019-05-03T12:25:45.351Z,12.60
2019-05-03T12:28:11.662Z,12.90
2019-05-03T12:30:39.072Z,12.72
2019-05-03T12:33:06.554Z,12.70
2019-05-03T12:35:35.764Z,12.70
2019-05-03T12:38:05.430Z,12.69
2019-05-03T12:40:32.540Z,13.26
2019-05-03T12:43:00.063Z,13.47
2019-05-03T12:45:27.428Z,13.60
2019-05-03T12:47:55.944Z,13.45
2019-05-03T12:50:25.168Z,13.53
2019-05-03T12:52:55.229Z,13.96
2019-05-03T12:55:22.064Z,13.78
2019-05-03T12:57:49.485Z,13.68
2019-05-03T13:00:35.642Z,13.58
2019-05-03T13:03:09.211Z,13.93
2019-05-03T13:05:36.596Z,13.55
2019-05-03T13:08:48.731Z,13.64
2019-05-03T13:11:16.229Z,13.05
2019-05-03T13:13:45.177Z,12.95
2019-05-03T13:16:16.868Z,13.11
2019-05-03T13:18:45.796Z,12.83
2019-05-03T13:21:13.383Z,12.89
2019-05-03T13:23:40.714Z,12.64
2019-05-03T13:26:09.107Z,12.86
2019-05-03T13:28:36.471Z,12.74
2019-05-03T13:31:05.830Z,12.73
2019-05-03T13:33:34.788Z,12.84
2019-05-03T13:36:02.511Z,12.72
2019-05-03T13:38:29.865Z,13.03
2019-05-03T13:40:57.514Z,12.98
2019-05-03T13:43:24.844Z,13.21
2019-05-03T13:45:52.251Z,12.81
2019-05-03T13:48:21.026Z,12.79
2019-05-03T13:50:48.810Z,12.55
2019-05-03T13:53:16.267Z,12.65
2019-05-03T13:55:44.556Z,12.62
2019-05-03T13:58:12.187Z,12.31
2019-05-03T14:00:39.572Z,12.63
2019-05-03T14:03:06.956Z,12.45
2019-05-03T14:05:35.198Z,12.41
2019-05-03T14:08:05.094Z,12.48
2019-05-03T14:10:32.278Z,12.68
2019-05-03T14:12:59.697Z,12.49
2019-05-03T14:15:27.150Z,12.68
2019-05-03T14:17:54.792Z,12.49
2019-05-03T14:20:42.827Z,12.34
2019-05-03T14:23:10.336Z,12.21
2019-05-03T14:25:37.671Z,12.89
2019-05-03T14:28:05.477Z,13.29
2019-05-03T14:30:34.625Z,13.13
2019-05-03T14:33:02.309Z,13.41
2019-05-03T14:35:29.657Z,13.84
2019-05-03T14:37:57.037Z,13.49
2019-05-03T14:40:25.124Z,14.13
2019-05-03T14:42:55.476Z,14.14
2019-05-03T14:45:22.982Z,13.69
2019-05-03T14:47:50.374Z,13.15
2019-05-03T14:50:17.800Z,13.31
2019-05-03T14:52:45.566Z,12.57
2019-05-03T14:55:22.714Z,12.97
2019-05-03T14:58:05.190Z,12.81
2019-05-03T15:00:52.102Z,12.85
2019-05-03T15:03:24.206Z,12.90
2019-05-03T15:05:51.798Z,12.49
2019-05-03T15:08:19.254Z,12.56
2019-05-03T15:10:46.730Z,12.78
2019-05-03T15:13:15.913Z,12.74
2019-05-03T15:15:45.131Z,12.57
2019-05-03T15:18:14.752Z,12.48
2019-05-03T15:20:42.044Z,12.40
2019-05-03T15:23:09.383Z,12.27
2019-05-03T15:25:36.801Z,12.83
2019-05-03T15:28:05.007Z,12.72
2019-05-03T15:30:32.700Z,13.41
2019-05-03T15:33:01.005Z,13.66
2019-05-03T15:35:28.520Z,13.15
2019-05-03T15:37:55.956Z,13.38
2019-05-03T15:40:25.097Z,12.93
2019-05-03T15:42:59.118Z,12.77
2019-05-03T15:46:01.247Z,13.66
2019-05-03T15:48:30.974Z,14.85
2019-05-03T15:50:58.397Z,13.74
2019-05-03T15:53:25.759Z,13.71
2019-05-03T15:55:55.019Z,12.92
2019-05-03T15:58:22.464Z,13.26
2019-05-03T16:00:49.954Z,12.70
2019-05-03T16:03:17.750Z,12.90
2019-05-03T16:05:45.125Z,12.78
2019-05-03T16:08:12.484Z,13.07
2019-05-03T16:10:39.925Z,13.11
2019-05-03T16:13:07.258Z,13.03
2019-05-03T16:15:35.160Z,13.27
2019-05-03T16:18:05.030Z,12.67
2019-05-03T16:20:34.510Z,12.52
2019-05-03T16:23:01.497Z,12.48
2019-05-03T16:25:28.925Z,12.37
2019-05-03T16:28:20.498Z,12.11
2019-05-03T16:30:50.745Z,11.98
2019-05-03T16:33:27.063Z,11.66
2019-05-03T16:35:47.528Z,11.68
2019-05-03T16:38:15.684Z,11.57
2019-05-03T16:40:45.000Z,11.41
2019-05-03T16:43:12.496Z,11.65
2019-05-03T16:45:39.879Z,11.35
2019-05-03T16:48:08.411Z,11.12
2019-05-03T16:50:35.807Z,11.31
2019-05-03T16:53:03.288Z,10.90
2019-05-03T16:55:30.842Z,11.14
2019-05-03T16:57:58.258Z,11.14
2019-05-03T17:00:25.709Z,10.82
2019-05-03T17:02:54.965Z,10.53
2019-05-03T17:05:57.262Z,10.60
2019-05-03T17:08:31.326Z,10.72
2019-05-03T17:11:00.577Z,10.45
2019-05-03T17:13:27.964Z,10.61
2019-05-03T17:15:55.384Z,10.26
2019-05-03T17:18:24.630Z,10.24
2019-05-03T17:20:52.166Z,10.37
2019-05-03T17:23:20.579Z,10.17
2019-05-03T17:25:47.988Z,10.14
2019-05-03T17:28:15.761Z,10.31
2019-05-03T17:30:44.576Z,10.28
2019-05-03T17:33:12.046Z,10.21
2019-05-03T17:35:39.410Z,10.04
2019-05-03T17:38:06.804Z,9.82
2019-05-03T17:40:58.269Z,9.99
2019-05-03T17:43:51.394Z,10.04
2019-05-03T17:46:18.903Z,9.84
2019-05-03T17:48:46.287Z,10.31
2019-05-03T17:51:35.138Z,9.99
2019-05-03T17:54:11.778Z,9.92
2019-05-03T17:56:57.992Z,9.91
2019-05-03T17:59:30.355Z,9.80
2019-05-03T18:02:16.030Z,9.79
2019-05-03T18:05:14.991Z,9.88
2019-05-03T18:08:04.740Z,9.79
2019-05-03T18:10:33.386Z,9.88
2019-05-03T18:13:00.779Z,10.12
2019-05-03T18:15:28.229Z,9.61
2019-05-03T18:17:55.685Z,9.72
2019-05-03T18:20:23.115Z,10.00
2019-05-03T18:22:50.468Z,9.88
2019-05-03T18:25:20.585Z,9.63
2019-05-03T18:27:47.984Z,9.70
2019-05-03T18:30:15.407Z,9.76
2019-05-03T18:32:42.855Z,9.63
2019-05-03T18:35:10.473Z,9.46
2019-05-03T18:37:37.931Z,9.49
2019-05-03T18:40:05.803Z,9.38
2019-05-03T18:42:39.952Z,9.45
2019-05-03T18:45:15.128Z,9.68
2019-05-03T18:47:44.923Z,9.63
2019-05-03T18:50:12.499Z,9.67
2019-05-03T18:52:40.009Z,9.59
2019-05-03T18:55:07.559Z,9.55
2019-05-03T18:57:36.360Z,9.82
2019-05-03T19:00:07.967Z,9.68
2019-05-03T19:02:33.863Z,9.77
2019-05-03T19:05:01.716Z,9.77
2019-05-03T19:07:47.521Z,9.70
2019-05-03T19:10:40.332Z,9.69
2019-05-03T19:13:15.388Z,9.89
2019-05-03T19:15:43.172Z,9.73
2019-05-03T19:18:35.253Z,9.66
2019-05-03T19:21:04.611Z,9.70
2019-05-03T19:23:32.658Z,9.67
2019-05-03T19:26:00.125Z,9.56
2019-05-03T19:28:27.595Z,9.40
2019-05-03T19:30:55.334Z,9.51
2019-05-03T19:33:24.485Z,9.74
2019-05-03T19:35:52.588Z,9.75
2019-05-03T19:38:21.188Z,9.60
2019-05-03T19:40:49.707Z,9.68
2019-05-03T19:43:18.273Z,9.65
2019-05-03T19:45:46.841Z,9.36
2019-05-03T19:48:16.878Z,9.38
2019-05-03T19:50:46.258Z,9.42
2019-05-03T19:53:19.899Z,9.23
2019-05-03T19:55:50.541Z,9.21
2019-05-03T19:58:19.225Z,9.37
2019-05-03T20:01:09.250Z,9.18
2019-05-03T20:03:45.515Z,9.24
2019-05-03T20:06:25.211Z,9.19
2019-05-03T20:08:58.364Z,9.11
2019-05-03T20:11:26.351Z,9.18
2019-05-03T20:13:55.180Z,9.30
2019-05-03T20:16:22.913Z,8.99
2019-05-03T20:18:50.359Z,9.06
2019-05-03T20:21:17.775Z,9.13
2019-05-03T20:23:47.132Z,9.20
2019-05-03T20:26:15.169Z,9.38
2019-05-03T20:28:44.802Z,9.14
2019-05-03T20:31:12.477Z,9.20
2019-05-03T20:33:39.882Z,9.07
2019-05-03T20:36:07.254Z,8.98
2019-05-03T20:38:34.709Z,9.08
2019-05-03T20:41:02.136Z,9.17
2019-05-03T20:43:36.716Z,9.05
2019-05-03T20:46:15.154Z,9.12
2019-05-03T20:48:44.911Z,9.22
2019-05-03T20:51:12.322Z,9.18
2019-05-03T20:53:39.667Z,9.07
2019-05-03T20:56:07.255Z,8.99
2019-05-03T20:58:35.816Z,8.77
2019-05-03T21:01:05.002Z,8.92
2019-05-03T21:03:32.735Z,8.81
2019-05-03T21:06:02.392Z,8.78
2019-05-03T21:08:30.698Z,8.93
2019-05-03T21:10:58.121Z,8.81
2019-05-03T21:13:38.646Z,8.70
2019-05-03T21:16:14.804Z,8.59
2019-05-03T21:18:57.959Z,8.80
2019-05-03T21:21:35.204Z,9.12
2019-05-03T21:24:11.652Z,8.90
2019-05-03T21:26:39.586Z,8.88
2019-05-03T21:29:07.163Z,8.80
2019-05-03T21:31:35.199Z,8.72
2019-05-03T21:34:05.623Z,8.76
2019-05-03T21:36:34.901Z,8.67
2019-05-03T21:39:02.891Z,8.72
2019-05-03T21:41:30.251Z,8.65
2019-05-03T21:43:57.693Z,8.61
2019-05-03T21:46:40.116Z,8.65
2019-05-03T21:49:15.852Z,8.62
2019-05-03T21:51:44.967Z,8.72
2019-05-03T21:54:12.480Z,8.72
2019-05-03T21:56:39.987Z,8.77
2019-05-03T21:59:07.490Z,8.77
2019-05-03T22:01:37.644Z,8.85
2019-05-03T22:04:05.052Z,8.75
2019-05-03T22:06:32.460Z,8.84
2019-05-03T22:08:59.823Z,8.71
2019-05-03T22:11:27.177Z,8.83
2019-05-03T22:13:57.144Z,8.81
2019-05-03T22:16:46.832Z,8.75
2019-05-03T22:19:16.280Z,8.76
2019-05-03T22:22:02.997Z,8.87
2019-05-03T22:24:37.666Z,8.72
2019-05-03T22:27:15.395Z,8.61
2019-05-03T22:29:44.656Z,8.60
2019-05-03T22:32:12.243Z,8.66
2019-05-03T22:34:39.612Z,8.67
2019-05-03T22:37:06.967Z,8.44
2019-05-03T22:39:34.326Z,8.60
2019-05-03T22:42:01.665Z,8.51
2019-05-03T22:44:29.066Z,8.66
2019-05-03T22:46:56.431Z,8.78
2019-05-03T22:49:25.724Z,8.24
2019-05-03T22:51:54.350Z,8.41
2019-05-03T22:54:22.004Z,8.41
2019-05-03T22:56:49.367Z,8.38
2019-05-03T22:59:16.737Z,8.50
2019-05-03T23:01:45.784Z,8.28
2019-05-03T23:04:14.704Z,8.38
2019-05-03T23:06:46.716Z,8.40
2019-05-03T23:09:11.616Z,8.39
2019-05-03T23:11:38.963Z,8.39
2019-05-03T23:14:06.323Z,8.58
2019-05-03T23:16:35.628Z,8.40
2019-05-03T23:19:05.325Z,8.32
2019-05-03T23:21:54.479Z,8.41
2019-05-03T23:24:22.026Z,8.30
2019-05-03T23:26:49.363Z,8.15
2019-05-03T23:29:16.749Z,8.22
2019-05-03T23:31:44.833Z,8.37
2019-05-03T23:34:12.443Z,8.20
2019-05-03T23:36:39.795Z,8.16
2019-05-03T23:39:08.609Z,8.18
2019-05-03T23:41:36.026Z,8.20
2019-05-03T23:44:04.793Z,8.11
2019-05-03T23:46:56.627Z,8.08
2019-05-03T23:49:25.003Z,8.29
2019-05-03T23:51:55.521Z,8.22
2019-05-03T23:54:24.744Z,8.05
2019-05-03T23:56:55.022Z,8.24
2019-05-03T23:59:22.345Z,8.05
